Time;durP1;ratioP1;P1;durP2;ratioP2;P2;SDS_P1;SDS_P2;PMS_P1;PMS_P2;Temp;Humidity;BMP_temperature;BMP_pressure;BME280_temperature;BME280_humidity;BME280_pressure;Samples;Min_cycle;Max_cycle;Signal;HPM_P1;HPM_P2
2023/08/23 00:00:16;;;;;;;9.48;5.68;;;;;;;26.08;60.35;100179.00;4940418;28;20063;-87
2023/08/23 00:02:43;;;;;;;8.85;5.53;;;;;;;26.08;60.39;100182.59;4944628;28;20491;-86
2023/08/23 00:05:10;;;;;;;5.78;5.22;;;;;;;26.03;60.31;100182.44;4927466;28;20491;-86
2023/08/23 00:07:36;;;;;;;7.30;5.20;;;;;;;26.03;60.06;100182.44;4950243;28;20732;-87
2023/08/23 00:10:04;;;;;;;7.53;5.47;;;;;;;26.01;59.90;100172.84;4917947;28;20102;-87
2023/08/23 00:12:31;;;;;;;6.18;5.40;;;;;;;26.00;60.01;100182.88;4917546;28;20066;-87
2023/08/23 00:14:58;;;;;;;6.13;5.53;;;;;;;25.98;60.00;100174.13;4907928;28;20503;-87
2023/08/23 00:17:25;;;;;;;6.38;4.97;;;;;;;25.96;60.32;100187.97;4904443;28;20063;-87
2023/08/23 00:19:53;;;;;;;6.18;5.32;;;;;;;25.94;60.27;100179.19;4925068;28;20111;-86
2023/08/23 00:22:20;;;;;;;7.80;5.50;;;;;;;25.92;60.01;100175.03;4942883;28;20066;-87
2023/08/23 00:24:47;;;;;;;6.38;4.88;;;;;;;25.90;60.28;100171.69;4892735;29;20047;-87
2023/08/23 00:27:13;;;;;;;8.02;5.10;;;;;;;25.90;59.94;100180.72;4936430;28;20119;-86
2023/08/23 00:29:40;;;;;;;8.95;5.20;;;;;;;25.86;59.80;100182.22;4924228;28;20055;-87
2023/08/23 00:32:07;;;;;;;7.10;5.30;;;;;;;25.88;59.89;100179.28;4916188;28;20047;-87
2023/08/23 00:34:34;;;;;;;7.47;4.80;;;;;;;25.78;60.28;100174.34;4908185;29;20079;-84
2023/08/23 00:37:01;;;;;;;13.38;7.75;;;;;;;25.76;60.16;100184.63;4904689;28;20054;-87
2023/08/23 00:39:27;;;;;;;7.15;5.53;;;;;;;25.77;59.86;100181.69;4935365;28;20062;-86
2023/08/23 00:41:54;;;;;;;10.80;5.60;;;;;;;25.78;60.39;100177.06;4923846;28;20764;-86
2023/08/23 00:44:21;;;;;;;5.80;4.97;;;;;;;25.77;60.30;100186.25;4920198;28;20129;-87
2023/08/23 00:46:48;;;;;;;7.00;5.30;;;;;;;25.71;60.10;100184.47;4938052;28;20082;-86
2023/08/23 00:49:15;;;;;;;7.93;5.30;;;;;;;25.69;60.38;100184.69;4949543;28;20051;-87
2023/08/23 00:51:42;;;;;;;8.18;6.05;;;;;;;25.70;60.22;100191.81;4919207;28;20055;-87
2023/08/23 00:54:11;;;;;;;6.25;5.60;;;;;;;25.68;60.20;100188.47;4937150;28;20051;-87
2023/08/23 00:56:38;;;;;;;6.35;5.13;;;;;;;25.68;60.38;100187.66;4934674;28;20111;-83
2023/08/23 00:59:09;;;;;;;6.93;5.45;;;;;;;25.65;60.33;100190.81;4906582;28;20055;-87
2023/08/23 01:01:35;;;;;;;6.60;4.97;;;;;;;25.68;60.12;100184.91;4941288;28;20148;-87
2023/08/23 01:04:02;;;;;;;5.75;4.90;;;;;;;25.67;60.41;100188.69;4917198;28;20054;-87
2023/08/23 01:07:08;;;;;;;8.50;5.35;;;;;;;25.54;61.00;100195.94;4923832;28;20071;-86
2023/08/23 01:09:59;;;;;;;9.32;5.40;;;;;;;25.58;60.88;100181.91;4931631;28;20051;-87
2023/08/23 01:12:35;;;;;;;6.35;5.30;;;;;;;25.59;61.26;100186.28;4950954;28;20047;-87
2023/08/23 01:15:07;;;;;;;10.20;6.35;;;;;;;25.59;61.17;100192.53;4930608;28;20133;-86
2023/08/23 01:17:36;;;;;;;6.68;5.72;;;;;;;25.63;60.67;100188.31;4925301;28;20051;-87
2023/08/23 01:20:03;;;;;;;7.60;5.97;;;;;;;25.58;60.72;100193.59;4939932;28;20865;-87
2023/08/23 01:22:32;;;;;;;8.95;6.25;;;;;;;25.56;60.50;100198.44;4926019;28;20051;-87
2023/08/23 01:24:59;;;;;;;8.70;5.78;;;;;;;25.61;60.43;100195.88;4909938;28;20059;-87
2023/08/23 01:27:28;;;;;;;7.70;5.57;;;;;;;25.52;60.89;100189.91;4928528;28;20487;-87
2023/08/23 01:29:58;;;;;;;6.50;5.65;;;;;;;25.48;60.91;100199.56;4945680;28;20206;-87
2023/08/23 01:32:39;;;;;;;8.20;5.50;;;;;;;25.33;61.58;100202.63;4918537;28;20126;-86
2023/08/23 01:35:19;;;;;;;7.35;5.88;;;;;;;25.38;61.37;100201.13;4953498;28;20047;-86
2023/08/23 01:37:54;;;;;;;6.22;5.32;;;;;;;25.33;61.44;100199.06;4943641;28;20054;-86
2023/08/23 01:40:22;;;;;;;10.00;5.50;;;;;;;25.35;61.15;100202.41;4938041;28;20123;-86
2023/08/23 01:42:49;;;;;;;6.80;5.72;;;;;;;25.35;61.37;100202.41;4953477;28;20058;-86
2023/08/23 01:45:17;;;;;;;7.22;5.15;;;;;;;25.33;61.52;100199.06;4930275;28;20099;-85
2023/08/23 01:47:44;;;;;;;8.05;5.65;;;;;;;25.29;61.54;100200.56;4929709;28;20063;-87
2023/08/23 01:50:12;;;;;;;9.98;5.43;;;;;;;25.27;61.69;100191.84;4944600;28;20058;-87
2023/08/23 01:52:38;;;;;;;8.68;5.82;;;;;;;25.26;61.26;100188.25;4922915;28;20103;-85
2023/08/23 01:55:07;;;;;;;6.40;5.40;;;;;;;25.26;61.41;100193.69;4924976;28;20615;-87
2023/08/23 01:57:34;;;;;;;6.18;5.57;;;;;;;25.27;61.52;100191.84;4918049;28;20043;-87
2023/08/23 02:00:01;;;;;;;6.93;5.60;;;;;;;25.22;61.54;100192.50;4921914;28;20677;-86
2023/08/23 02:02:40;;;;;;;6.53;5.45;;;;;;;25.21;61.76;100195.44;4926467;28;20062;-84
2023/08/23 02:05:07;;;;;;;8.60;5.72;;;;;;;25.16;61.87;100193.38;4951253;28;20123;-87
2023/08/23 02:07:34;;;;;;;5.95;5.45;;;;;;;25.16;61.96;100190.66;4922861;28;20503;-86
2023/08/23 02:10:00;;;;;;;7.22;5.88;;;;;;;25.11;62.03;100183.16;4940194;28;20070;-87
2023/08/23 02:12:28;;;;;;;8.10;5.63;;;;;;;25.10;61.92;100181.47;4909213;28;20131;-87
2023/08/23 02:14:55;;;;;;;7.78;5.30;;;;;;;25.08;62.09;100180.88;4940178;28;20102;-86
2023/08/23 02:17:22;;;;;;;7.95;5.90;;;;;;;25.09;62.27;100189.88;4926055;28;20042;-86
2023/08/23 02:19:49;;;;;;;6.88;5.28;;;;;;;25.04;62.16;100182.38;4922677;28;20111;-86
2023/08/23 02:22:15;;;;;;;6.82;5.18;;;;;;;25.02;62.15;100183.66;4928607;28;20047;-87
2023/08/23 02:24:42;;;;;;;7.63;5.68;;;;;;;25.01;61.98;100184.69;4920367;28;20099;-86
2023/08/23 02:27:09;;;;;;;11.98;5.55;;;;;;;25.00;62.29;100186.59;4937125;28;20043;-86
2023/08/23 02:29:36;;;;;;;15.13;5.88;;;;;;;24.92;62.52;100192.31;4911650;28;20051;-86
2023/08/23 02:32:03;;;;;;;6.93;5.50;;;;;;;24.96;62.23;100189.97;4942966;28;20414;-86
2023/08/23 02:34:30;;;;;;;8.35;5.57;;;;;;;24.90;62.39;100188.97;4942667;28;20813;-86
2023/08/23 02:36:57;;;;;;;6.65;5.78;;;;;;;24.88;62.46;100197.34;4951877;28;20463;-83
2023/08/23 02:39:23;;;;;;;8.27;6.07;;;;;;;24.88;62.26;100197.34;4929669;28;20051;-86
2023/08/23 02:41:50;;;;;;;10.73;5.80;;;;;;;24.86;62.01;100199.44;4920957;28;20059;-86
2023/08/23 02:44:17;;;;;;;9.48;5.40;;;;;;;24.82;62.67;100208.25;4937535;28;20150;-86
2023/08/23 02:46:44;;;;;;;8.25;5.80;;;;;;;24.86;62.54;100209.50;4896347;28;20039;-87
2023/08/23 02:49:10;;;;;;;6.60;5.68;;;;;;;24.86;62.44;100206.78;4924105;28;20043;-86
2023/08/23 02:51:37;;;;;;;7.55;5.68;;;;;;;24.85;62.43;100203.19;4924418;28;20045;-86
2023/08/23 02:54:04;;;;;;;9.13;6.55;;;;;;;24.87;62.20;100201.09;4939308;28;20508;-86
2023/08/23 02:56:31;;;;;;;7.28;6.10;;;;;;;24.80;62.56;100194.88;4907482;28;20058;-85
2023/08/23 02:58:57;;;;;;;7.63;5.80;;;;;;;24.80;62.56;100192.16;4907828;28;20067;-86
2023/08/23 03:01:24;;;;;;;6.70;5.40;;;;;;;24.77;62.31;100191.78;4950825;28;20052;-86
2023/08/23 03:03:51;;;;;;;6.63;5.93;;;;;;;24.80;62.45;100189.44;4938343;28;20714;-85
2023/08/23 03:06:18;;;;;;;10.25;5.80;;;;;;;24.75;62.37;100174.88;4951138;28;20047;-86
2023/08/23 03:08:45;;;;;;;13.93;5.90;;;;;;;24.74;62.33;100174.06;4921170;28;20522;-86
2023/08/23 03:11:11;;;;;;;6.03;5.43;;;;;;;24.75;62.38;100177.59;4925944;28;20070;-86
2023/08/23 03:13:38;;;;;;;6.40;5.80;;;;;;;24.72;62.34;100173.44;4938027;28;20047;-86
2023/08/23 03:16:05;;;;;;;7.40;5.38;;;;;;;24.72;62.35;100167.19;4921655;28;20059;-86
2023/08/23 03:18:41;;;;;;;8.38;5.22;;;;;;;24.64;62.47;100163.66;4948057;28;20478;-86
2023/08/23 03:21:08;;;;;;;8.88;5.53;;;;;;;24.63;62.67;100159.31;4946112;28;20050;-86
2023/08/23 03:23:39;;;;;;;10.10;6.00;;;;;;;24.64;62.31;100162.84;4922019;28;20047;-87
2023/08/23 03:26:07;;;;;;;6.50;5.88;;;;;;;24.62;62.54;100168.47;4935968;28;20062;-85
2023/08/23 03:28:34;;;;;;;10.38;6.82;;;;;;;24.64;62.57;100171.81;4913453;28;20040;-87
2023/08/23 03:31:05;;;;;;;11.55;6.18;;;;;;;24.60;62.56;100169.75;4938298;28;20056;-87
2023/08/23 03:33:32;;;;;;;6.55;5.45;;;;;;;24.60;62.72;100170.63;4938691;28;20067;-87
2023/08/23 03:35:59;;;;;;;6.85;6.15;;;;;;;24.57;62.58;100168.31;4923247;28;20066;-86
2023/08/23 03:38:27;;;;;;;9.93;6.10;;;;;;;24.53;62.65;100161.69;4889715;28;20051;-87
2023/08/23 03:40:54;;;;;;;9.15;5.70;;;;;;;24.53;62.71;100163.56;4941389;28;20047;-87
2023/08/23 03:43:21;;;;;;;8.82;5.50;;;;;;;24.46;62.67;100161.72;4910416;28;20099;-86
2023/08/23 03:45:48;;;;;;;7.30;5.57;;;;;;;24.48;62.55;100165.03;4931056;28;20043;-86
2023/08/23 03:48:17;;;;;;;6.50;5.05;;;;;;;24.43;62.78;100166.72;4937000;28;20046;-86
2023/08/23 03:50:44;;;;;;;7.72;5.53;;;;;;;24.36;62.87;100155.91;4921416;28;20487;-87
2023/08/23 03:53:11;;;;;;;8.13;6.03;;;;;;;24.35;63.12;100158.81;4922653;28;20051;-86
2023/08/23 03:55:38;;;;;;;9.32;5.50;;;;;;;24.36;62.98;100168.63;4928368;28;20055;-87
2023/08/23 03:58:05;;;;;;;9.75;5.60;;;;;;;24.37;63.03;100160.25;4920897;28;20051;-87
2023/08/23 04:00:32;;;;;;;7.80;6.18;;;;;;;24.36;62.81;100164.03;4910978;28;20145;-86
2023/08/23 04:03:01;;;;;;;9.52;5.97;;;;;;;24.35;63.04;100165.09;4920621;28;20055;-86
2023/08/23 04:05:28;;;;;;;11.70;5.78;;;;;;;24.35;62.57;100161.53;4931933;28;20475;-85
2023/08/23 04:07:55;;;;;;;9.48;6.07;;;;;;;24.30;62.93;100167.63;4909740;28;20039;-86
2023/08/23 04:10:22;;;;;;;10.65;6.35;;;;;;;24.30;63.06;100164.06;4911245;28;20130;-86
2023/08/23 04:12:49;;;;;;;10.75;6.32;;;;;;;24.28;62.92;100169.72;4906047;28;20130;-86
2023/08/23 04:15:17;;;;;;;7.38;5.88;;;;;;;24.27;63.02;100168.03;4908205;28;20051;-88
2023/08/23 04:17:44;;;;;;;8.30;6.40;;;;;;;24.24;62.88;100166.59;4941553;28;20123;-88
2023/08/23 04:20:11;;;;;;;7.97;6.88;;;;;;;24.23;62.72;100164.94;4940111;28;20811;-88
2023/08/23 04:22:38;;;;;;;8.05;5.85;;;;;;;24.22;62.69;100173.28;4938066;28;20047;-88
2023/08/23 04:25:05;;;;;;;7.80;6.45;;;;;;;24.22;62.69;100179.56;4927930;28;20123;-87
2023/08/23 04:27:33;;;;;;;8.25;6.60;;;;;;;24.15;62.79;100184.19;4946256;28;20066;-89
2023/08/23 04:30:07;;;;;;;9.85;6.47;;;;;;;24.13;63.00;100185.47;4904976;29;20129;-87
2023/08/23 04:32:37;;;;;;;8.38;6.20;;;;;;;24.13;62.89;100178.16;4921252;28;20051;-87
2023/08/23 04:35:04;;;;;;;8.10;5.90;;;;;;;24.13;63.08;100182.75;4939428;28;20620;-87
2023/08/23 04:37:31;;;;;;;9.43;6.38;;;;;;;24.13;62.68;100182.75;4934077;28;20058;-87
2023/08/23 04:39:58;;;;;;;9.55;6.22;;;;;;;24.11;62.93;100184.84;4902685;28;20641;-87
2023/08/23 04:42:25;;;;;;;7.28;5.90;;;;;;;24.11;63.31;100182.13;4906672;28;20515;-87
2023/08/23 04:44:52;;;;;;;8.85;5.68;;;;;;;24.13;62.75;100183.56;4927752;28;20102;-86
2023/08/23 04:47:18;;;;;;;8.65;6.00;;;;;;;24.08;63.16;100177.97;4919011;28;20067;-87
2023/08/23 04:49:49;;;;;;;7.85;5.95;;;;;;;24.06;63.13;100185.47;4918711;28;20494;-85
2023/08/23 04:52:16;;;;;;;8.02;5.82;;;;;;;24.09;63.28;100181.50;4919458;28;20047;-83
2023/08/23 04:54:43;;;;;;;8.52;6.20;;;;;;;24.08;63.06;100185.28;4931240;28;20043;-83
2023/08/23 04:57:10;;;;;;;9.10;6.05;;;;;;;24.12;63.35;100189.22;4910189;28;20058;-83
2023/08/23 04:59:38;;;;;;;9.55;5.95;;;;;;;24.11;63.17;100180.25;4925828;29;20055;-83
2023/08/23 05:02:06;;;;;;;9.45;6.53;;;;;;;24.11;63.38;100185.66;4956835;28;20059;-83
2023/08/23 05:04:33;;;;;;;7.25;5.95;;;;;;;24.13;63.20;100177.31;4940549;28;20067;-83
2023/08/23 05:06:59;;;;;;;6.80;5.75;;;;;;;24.19;63.26;100187.31;4928027;28;20625;-83
2023/08/23 05:09:28;;;;;;;9.00;5.72;;;;;;;24.19;63.24;100187.31;4922877;28;20039;-83
2023/08/23 05:11:55;;;;;;;7.43;5.93;;;;;;;24.21;63.27;100187.91;4924226;28;20650;-83
2023/08/23 05:14:23;;;;;;;8.68;6.72;;;;;;;24.22;63.21;100195.84;4929380;28;20051;-83
2023/08/23 05:16:49;;;;;;;7.18;5.53;;;;;;;24.23;63.22;100200.22;4940738;28;20051;-83
2023/08/23 05:19:16;;;;;;;7.22;5.88;;;;;;;24.23;63.01;100205.66;4928982;28;20682;-83
2023/08/23 05:21:43;;;;;;;9.13;6.13;;;;;;;24.23;62.80;100202.94;4922756;28;20047;-83
2023/08/23 05:24:10;;;;;;;9.57;6.00;;;;;;;24.18;62.67;100200.03;4937953;28;20468;-83
2023/08/23 05:26:39;;;;;;;13.48;6.28;;;;;;;24.22;62.47;100206.72;4952444;28;20059;-84
2023/08/23 05:29:06;;;;;;;9.15;6.40;;;;;;;24.22;62.22;100203.13;4909216;28;20052;-83
2023/08/23 05:31:35;;;;;;;10.73;7.88;;;;;;;24.20;62.32;100200.66;4898447;28;20130;-83
2023/08/23 05:34:02;;;;;;;8.77;7.38;;;;;;;24.20;62.12;100203.38;4937384;28;20159;-83
2023/08/23 05:36:29;;;;;;;10.13;6.80;;;;;;;24.20;62.15;100202.56;4898734;28;20079;-83
2023/08/23 05:39:01;;;;;;;11.25;7.80;;;;;;;24.18;62.23;100207.34;4904503;28;20043;-83
2023/08/23 05:41:27;;;;;;;11.18;7.05;;;;;;;24.22;62.13;100216.72;4941893;28;20122;-83
2023/08/23 05:43:54;;;;;;;11.80;6.97;;;;;;;24.21;62.05;100212.34;4925327;28;20457;-83
2023/08/23 05:46:22;;;;;;;11.80;7.40;;;;;;;24.21;61.88;100205.03;4908219;28;23087;-83
2023/08/23 05:48:49;;;;;;;13.15;7.20;;;;;;;24.26;62.18;100212.53;4937299;28;20044;-83
2023/08/23 05:51:16;;;;;;;11.00;6.65;;;;;;;24.31;62.38;100218.13;4937271;28;20055;-83
2023/08/23 05:53:43;;;;;;;7.70;6.28;;;;;;;24.33;61.93;100217.94;4909445;28;20054;-83
2023/08/23 05:56:09;;;;;;;18.98;7.07;;;;;;;24.36;62.19;100210.19;4924337;28;20054;-83
2023/08/23 05:58:36;;;;;;;10.45;6.57;;;;;;;24.39;62.33;100209.75;4926360;28;20504;-84
2023/08/23 06:01:03;;;;;;;10.40;6.72;;;;;;;24.37;61.89;100206.41;4942424;28;20522;-83
2023/08/23 06:03:30;;;;;;;9.02;7.05;;;;;;;24.41;62.20;100218.50;4932818;28;20043;-83
2023/08/23 06:05:56;;;;;;;8.65;6.50;;;;;;;24.37;61.99;100200.97;4952006;28;20749;-84
2023/08/23 06:08:23;;;;;;;7.82;6.20;;;;;;;24.40;62.17;100207.84;4926193;28;20048;-83
2023/08/23 06:10:50;;;;;;;10.00;6.57;;;;;;;24.39;62.31;100212.44;4922612;28;20047;-83
2023/08/23 06:13:17;;;;;;;7.05;6.13;;;;;;;24.40;62.60;100208.72;4920472;28;20046;-82
2023/08/23 06:15:43;;;;;;;8.90;6.82;;;;;;;24.41;62.77;100212.25;4936015;28;20134;-83
2023/08/23 06:18:10;;;;;;;10.27;6.70;;;;;;;24.43;62.82;100213.69;4941257;28;20865;-83
2023/08/23 06:20:38;;;;;;;7.18;6.43;;;;;;;24.44;63.03;100212.63;4935045;28;20499;-83
2023/08/23 06:23:05;;;;;;;10.60;6.75;;;;;;;24.44;62.70;100223.50;4919827;28;20122;-83
2023/08/23 06:25:32;;;;;;;8.38;6.20;;;;;;;24.45;62.85;100216.19;4925755;28;20368;-83
2023/08/23 06:27:59;;;;;;;9.45;6.18;;;;;;;24.45;63.14;100217.06;4938778;28;20055;-83
2023/08/23 06:30:26;;;;;;;10.32;6.78;;;;;;;24.47;62.87;100222.25;4942261;28;20138;-83
2023/08/23 06:32:54;;;;;;;11.10;7.10;;;;;;;24.46;62.90;100221.44;4938890;28;20138;-83
2023/08/23 06:35:21;;;;;;;10.00;6.53;;;;;;;24.46;63.03;100216.00;4935410;28;20511;-83
2023/08/23 06:37:48;;;;;;;7.63;6.28;;;;;;;24.49;62.96;100209.31;4937863;28;20079;-83
2023/08/23 06:40:16;;;;;;;9.52;7.07;;;;;;;24.53;62.97;100205.13;4937497;28;20039;-83
2023/08/23 06:42:43;;;;;;;10.18;7.32;;;;;;;24.52;62.90;100203.44;4921430;28;20130;-83
2023/08/23 06:45:11;;;;;;;9.50;7.07;;;;;;;24.55;63.03;100199.44;4939366;28;20047;-83
2023/08/23 06:47:38;;;;;;;8.40;6.97;;;;;;;24.59;62.75;100197.97;4899568;28;20142;-83
2023/08/23 06:50:06;;;;;;;8.23;6.60;;;;;;;24.60;62.37;100200.47;4927836;28;20135;-84
2023/08/23 06:52:38;;;;;;;9.35;6.70;;;;;;;24.60;62.70;100200.47;4917184;28;20055;-83
2023/08/23 06:55:06;;;;;;;9.32;6.53;;;;;;;24.64;62.81;100204.41;4928307;28;20055;-83
2023/08/23 06:57:33;;;;;;;10.55;6.90;;;;;;;24.66;63.13;100205.03;4941671;28;20055;-83
2023/08/23 07:00:00;;;;;;;9.55;6.65;;;;;;;24.68;63.31;100210.25;4923512;28;20051;-83
2023/08/23 07:02:26;;;;;;;13.27;6.88;;;;;;;24.72;62.56;100216.06;4910034;28;21037;-83
2023/08/23 07:04:53;;;;;;;9.15;6.47;;;;;;;24.75;62.91;100210.19;4910102;28;20079;-83
2023/08/23 07:07:21;;;;;;;8.57;6.63;;;;;;;24.78;63.09;100209.75;4894306;28;20051;-83
2023/08/23 07:09:48;;;;;;;9.85;6.68;;;;;;;24.83;63.41;100215.34;4920327;28;20436;-82
2023/08/23 07:12:15;;;;;;;7.15;6.40;;;;;;;24.81;62.96;100209.31;4904803;28;20456;-83
2023/08/23 07:14:42;;;;;;;7.93;6.53;;;;;;;24.83;62.56;100213.47;4915037;28;20162;-83
2023/08/23 07:17:08;;;;;;;9.52;6.60;;;;;;;24.82;62.72;100205.53;4927188;28;20043;-83
2023/08/23 07:19:35;;;;;;;8.50;6.20;;;;;;;24.87;62.72;100205.72;4952743;28;20111;-83
2023/08/23 07:22:03;;;;;;;11.05;6.32;;;;;;;24.89;63.01;100203.63;4939483;28;20044;-83
2023/08/23 07:24:31;;;;;;;9.13;6.60;;;;;;;24.94;62.98;100213.81;4921915;28;22903;-83
2023/08/23 07:26:58;;;;;;;10.48;6.13;;;;;;;24.96;62.57;100212.56;4906168;28;20066;-83
2023/08/23 07:29:24;;;;;;;9.93;6.90;;;;;;;25.01;62.59;100211.88;4907744;28;20059;-83
2023/08/23 07:31:51;;;;;;;7.93;5.93;;;;;;;24.98;61.57;100207.69;4919222;28;20031;-83
2023/08/23 07:34:18;;;;;;;13.57;6.35;;;;;;;25.01;62.26;100211.88;4917590;28;20720;-83
2023/08/23 07:36:45;;;;;;;7.95;6.50;;;;;;;25.02;62.04;100210.81;4948534;28;20062;-83
2023/08/23 07:39:12;;;;;;;9.82;6.50;;;;;;;25.05;61.72;100213.09;4940439;28;20078;-83
2023/08/23 07:41:39;;;;;;;10.20;6.15;;;;;;;25.07;61.72;100216.44;4938083;28;20040;-83
2023/08/23 07:44:06;;;;;;;9.05;6.07;;;;;;;25.06;61.28;100209.31;4939034;28;20051;-83
2023/08/23 07:46:33;;;;;;;6.10;5.32;;;;;;;25.11;61.81;100220.34;4919869;28;20047;-83
2023/08/23 07:49:00;;;;;;;13.63;6.32;;;;;;;25.15;61.91;100212.59;4914094;28;20456;-83
2023/08/23 07:51:26;;;;;;;7.35;5.60;;;;;;;25.17;61.62;100219.50;4923947;28;20562;-85
2023/08/23 07:53:53;;;;;;;12.40;5.93;;;;;;;25.21;61.77;100217.16;4913834;28;20044;-83
2023/08/23 07:56:20;;;;;;;6.93;5.82;;;;;;;25.24;61.34;100223.00;4919240;28;20139;-83
2023/08/23 07:58:47;;;;;;;6.63;5.57;;;;;;;25.26;61.49;100210.00;4935510;28;20043;-83
2023/08/23 08:01:14;;;;;;;8.02;5.20;;;;;;;25.28;61.82;100210.63;4933399;28;20050;-83
2023/08/23 08:03:41;;;;;;;6.32;5.10;;;;;;;25.32;61.62;100208.31;4936827;28;20052;-83
2023/08/23 08:06:07;;;;;;;7.38;5.47;;;;;;;25.34;61.50;100211.63;4940646;28;20043;-83
2023/08/23 08:08:39;;;;;;;9.10;6.28;;;;;;;25.34;61.82;100217.91;4918767;28;20162;-83
2023/08/23 08:11:06;;;;;;;8.85;4.70;;;;;;;25.37;61.51;100219.34;4931533;28;20050;-83
2023/08/23 08:13:32;;;;;;;8.68;6.03;;;;;;;25.42;61.72;100226.81;4933236;28;20126;-83
2023/08/23 08:16:06;;;;;;;9.57;5.70;;;;;;;25.40;61.35;100229.75;4941746;28;20485;-83
2023/08/23 08:18:32;;;;;;;9.23;5.35;;;;;;;25.45;61.36;100229.09;4927803;28;20058;-83
2023/08/23 08:20:59;;;;;;;8.40;5.55;;;;;;;25.46;61.35;100226.13;4927394;28;20059;-83
2023/08/23 08:23:26;;;;;;;9.20;5.63;;;;;;;25.49;61.92;100230.28;4925735;28;20040;-83
2023/08/23 08:25:53;;;;;;;6.45;5.70;;;;;;;25.51;61.76;100229.00;4939919;28;20058;-84
2023/08/23 08:28:20;;;;;;;8.25;6.07;;;;;;;25.56;61.33;100226.44;4920193;28;20054;-83
2023/08/23 08:30:47;;;;;;;7.28;5.60;;;;;;;25.60;61.23;100223.31;4923872;28;20513;-84
2023/08/23 08:33:15;;;;;;;6.00;5.38;;;;;;;25.59;61.38;100218.91;4909161;28;20047;-83
2023/08/23 08:35:43;;;;;;;7.68;5.10;;;;;;;25.66;60.92;100222.38;4911904;28;20047;-83
2023/08/23 08:38:10;;;;;;;12.32;5.82;;;;;;;25.63;60.07;100218.22;4918534;28;20051;-83
2023/08/23 08:40:37;;;;;;;11.13;4.97;;;;;;;25.65;59.12;100227.00;4921762;28;20475;-83
2023/08/23 08:43:05;;;;;;;8.95;5.22;;;;;;;25.66;59.28;100225.09;4908125;28;20081;-83
2023/08/23 08:45:35;;;;;;;7.93;5.32;;;;;;;25.68;58.77;100220.28;4919355;28;20135;-83
2023/08/23 08:48:02;;;;;;;8.07;4.80;;;;;;;25.67;59.11;100222.19;4911100;28;20456;-83
2023/08/23 08:50:31;;;;;;;8.10;5.28;;;;;;;25.74;59.09;100217.47;4909463;28;20059;-84
2023/08/23 08:52:59;;;;;;;11.23;5.00;;;;;;;25.74;59.09;100220.19;4924628;28;20066;-83
2023/08/23 08:55:28;;;;;;;12.18;5.28;;;;;;;25.76;59.08;100215.34;4893259;28;20496;-83
2023/08/23 08:57:56;;;;;;;6.88;4.50;;;;;;;25.80;58.87;100225.78;4910106;29;20055;-83
2023/08/23 09:00:25;;;;;;;6.43;4.20;;;;;;;25.82;59.20;100227.22;4910093;28;20784;-83
2023/08/23 09:02:57;;;;;;;6.45;4.43;;;;;;;25.84;58.19;100221.56;4910304;28;20127;-83
2023/08/23 09:05:24;;;;;;;7.18;3.80;;;;;;;25.83;57.79;100218.03;4941146;28;20205;-83
2023/08/23 09:07:52;;;;;;;5.35;3.78;;;;;;;25.89;56.63;100225.28;4904379;28;20047;-84
2023/08/23 09:10:19;;;;;;;6.53;3.97;;;;;;;25.90;55.15;100220.69;4907364;28;20044;-83
2023/08/23 09:12:46;;;;;;;6.78;4.10;;;;;;;25.93;55.31;100221.06;4927567;28;20499;-83
2023/08/23 09:15:13;;;;;;;4.95;3.88;;;;;;;25.93;56.24;100220.25;4935464;28;21482;-84
2023/08/23 09:17:39;;;;;;;4.65;3.40;;;;;;;25.94;55.86;100216.44;4949778;28;20048;-83
2023/08/23 09:20:09;;;;;;;4.63;2.92;;;;;;;25.97;54.01;100221.44;4920636;28;20415;-83
2023/08/23 09:22:36;;;;;;;6.78;2.90;;;;;;;25.99;53.18;100219.31;4915205;28;20040;-83
2023/08/23 09:25:04;;;;;;;3.58;3.17;;;;;;;26.02;53.08;100218.03;4951303;28;20563;-83
2023/08/23 09:27:31;;;;;;;4.75;3.28;;;;;;;26.05;52.90;100209.41;4924943;28;20134;-83
2023/08/23 09:30:16;;;;;;;5.15;3.60;;;;;;;26.08;54.16;100222.56;4950135;28;20051;-84
2023/08/23 09:32:43;;;;;;;5.00;3.85;;;;;;;26.11;53.93;100216.69;4891280;28;20075;-83
2023/08/23 09:35:12;;;;;;;5.22;4.22;;;;;;;26.13;53.48;100207.22;4922777;28;20047;-83
2023/08/23 09:37:46;;;;;;;5.80;4.13;;;;;;;26.15;53.48;100209.69;4935132;28;20134;-84
2023/08/23 09:40:17;;;;;;;7.22;4.40;;;;;;;26.17;53.87;100204.88;4943433;28;20073;-83
2023/08/23 09:42:45;;;;;;;6.72;4.25;;;;;;;26.17;54.14;100194.81;4883638;28;20411;-83
2023/08/23 09:45:22;;;;;;;6.05;3.80;;;;;;;26.15;53.79;100196.09;4918542;28;20444;-83
2023/08/23 09:47:52;;;;;;;6.47;4.40;;;;;;;26.18;53.87;100188.31;4914007;28;20535;-85
2023/08/23 09:50:20;;;;;;;9.73;4.53;;;;;;;26.22;53.81;100193.28;4910220;28;20118;-86
2023/08/23 09:53:06;;;;;;;5.45;4.25;;;;;;;26.15;53.43;100196.91;4898192;28;20133;-83
2023/08/23 09:55:33;;;;;;;5.90;4.28;;;;;;;26.23;53.79;100198.53;4925209;28;20073;-83
2023/08/23 09:58:01;;;;;;;6.75;4.63;;;;;;;26.27;53.52;100199.69;4896427;28;20054;-83
2023/08/23 10:00:28;;;;;;;8.05;4.45;;;;;;;26.29;53.44;100189.41;4925317;28;20047;-84
2023/08/23 10:02:58;;;;;;;4.78;4.35;;;;;;;26.29;53.60;100189.41;4912497;28;20047;-83
2023/08/23 10:05:26;;;;;;;6.38;4.82;;;;;;;26.31;53.81;100183.75;4939243;28;20050;-83
2023/08/23 10:07:55;;;;;;;5.65;4.32;;;;;;;26.32;54.55;100183.50;4927788;28;20039;-83
2023/08/23 10:10:23;;;;;;;7.45;4.82;;;;;;;26.35;54.30;100184.94;4944167;28;20043;-83
2023/08/23 10:12:52;;;;;;;5.13;4.35;;;;;;;26.36;54.38;100189.34;4921716;28;20071;-83
2023/08/23 10:15:28;;;;;;;6.38;4.70;;;;;;;26.36;53.56;100183.91;4911918;28;20047;-83
2023/08/23 10:17:56;;;;;;;7.05;4.63;;;;;;;26.37;53.54;100180.09;4938201;28;20064;-84
2023/08/23 10:20:23;;;;;;;5.53;4.53;;;;;;;26.41;54.31;100194.94;4936763;28;20566;-83
2023/08/23 10:22:56;;;;;;;8.25;4.80;;;;;;;26.41;53.28;100184.84;4921809;28;20051;-83
2023/08/23 10:25:23;;;;;;;5.80;4.97;;;;;;;26.41;53.33;100182.13;4928110;28;20084;-83
2023/08/23 10:27:54;;;;;;;5.30;4.80;;;;;;;26.42;53.46;100180.22;4912550;28;20070;-83
2023/08/23 10:30:25;;;;;;;7.20;4.95;;;;;;;26.42;53.73;100181.06;4928382;28;20515;-83
2023/08/23 10:32:53;;;;;;;6.03;4.47;;;;;;;26.46;53.49;100184.16;4907624;28;20119;-83
2023/08/23 10:35:27;;;;;;;9.48;4.78;;;;;;;26.49;54.00;100186.41;4952535;28;20126;-83
2023/08/23 10:37:54;;;;;;;8.98;4.75;;;;;;;26.50;54.10;100193.50;4909858;28;20134;-83
2023/08/23 10:40:21;;;;;;;6.13;4.95;;;;;;;26.51;53.93;100181.59;4913295;28;20499;-84
2023/08/23 10:42:50;;;;;;;6.75;4.32;;;;;;;26.55;53.85;100187.41;4897676;29;20047;-83
2023/08/23 10:45:17;;;;;;;6.55;4.53;;;;;;;26.55;53.45;100176.50;4923020;28;20491;-83
2023/08/23 10:47:44;;;;;;;4.97;4.47;;;;;;;26.57;53.41;100179.84;4897692;28;20038;-83
2023/08/23 10:50:12;;;;;;;5.82;4.57;;;;;;;26.58;53.80;100168.69;4907793;28;20051;-83
2023/08/23 10:52:39;;;;;;;9.93;4.97;;;;;;;26.60;53.56;100177.47;4906842;28;20065;-83
2023/08/23 10:55:06;;;;;;;8.93;4.93;;;;;;;26.63;54.17;100178.91;4910134;28;20131;-84
2023/08/23 10:57:33;;;;;;;7.28;5.13;;;;;;;26.63;54.10;100170.72;4910660;28;20066;-83
2023/08/23 11:00:00;;;;;;;7.90;4.70;;;;;;;26.66;53.51;100172.16;4918877;28;20051;-83
2023/08/23 11:02:27;;;;;;;7.35;5.00;;;;;;;26.72;53.45;100173.97;4925163;28;20063;-83
2023/08/23 11:04:54;;;;;;;6.35;4.25;;;;;;;26.72;53.48;100168.50;4930927;28;20047;-84
2023/08/23 11:07:25;;;;;;;4.47;4.07;;;;;;;26.73;54.02;100165.53;4938187;28;20442;-84
2023/08/23 11:09:53;;;;;;;6.28;4.38;;;;;;;26.78;54.14;100168.38;4924340;28;20035;-83
2023/08/23 11:12:20;;;;;;;6.82;4.82;;;;;;;26.83;53.09;100167.69;4935770;28;20771;-83
2023/08/23 11:14:46;;;;;;;6.57;4.47;;;;;;;26.84;53.00;100164.75;4904708;28;20051;-84
2023/08/23 11:17:16;;;;;;;7.78;4.55;;;;;;;26.79;52.90;100159.16;4892114;28;20040;-83
2023/08/23 11:19:43;;;;;;;7.07;4.63;;;;;;;26.83;52.01;100162.25;4910745;28;20130;-83
2023/08/23 11:22:10;;;;;;;7.18;4.43;;;;;;;26.82;51.96;100157.88;4921627;29;20388;-83
2023/08/23 11:24:38;;;;;;;5.47;4.28;;;;;;;26.83;52.50;100151.34;4911019;28;20763;-83
2023/08/23 11:27:12;;;;;;;8.15;4.35;;;;;;;26.83;52.03;100154.88;4910564;29;20433;-83